Time;durP1;ratioP1;P1;durP2;ratioP2;P2;SDS_P1;SDS_P2;PMS_P1;PMS_P2;Temp;Humidity;BMP_temperature;BMP_pressure;BME280_temperature;BME280_humidity;BME280_pressure;Samples;Min_cycle;Max_cycle;Signal;HPM_P1;HPM_P2
2024/02/08 00:00:54;;;;;;;6.27;4.73;;;3.40;99.90;;;;;;4943887;28;20471;-70
2024/02/08 00:03:23;;;;;;;9.10;5.30;;;3.40;99.90;;;;;;4943488;28;20439;-71
2024/02/08 00:05:49;;;;;;;7.60;4.90;;;3.40;99.90;;;;;;4941710;28;20463;-70
2024/02/08 00:08:16;;;;;;;8.53;4.90;;;3.40;99.90;;;;;;4939395;28;20466;-70
2024/02/08 00:10:44;;;;;;;16.50;5.70;;;3.40;99.90;;;;;;4945124;28;20441;-70
2024/02/08 00:13:13;;;;;;;7.80;4.43;;;3.50;99.90;;;;;;4939595;28;20472;-70
2024/02/08 00:15:40;;;;;;;5.43;4.27;;;3.60;99.90;;;;;;4943318;28;20459;-71
2024/02/08 00:18:07;;;;;;;8.50;5.70;;;3.60;99.90;;;;;;4939951;28;20533;-69
2024/02/08 00:20:35;;;;;;;9.67;4.23;;;3.70;99.90;;;;;;4942620;28;20488;-70
2024/02/08 00:23:02;;;;;;;12.43;6.13;;;3.70;99.90;;;;;;4947953;28;20457;-71
2024/02/08 00:25:29;;;;;;;11.07;4.70;;;3.80;99.90;;;;;;4940609;28;20492;-70
2024/02/08 00:27:55;;;;;;;7.40;5.50;;;3.70;99.90;;;;;;4945949;28;20467;-70
2024/02/08 00:30:22;;;;;;;7.50;4.60;;;3.60;99.90;;;;;;4946153;28;20482;-69
2024/02/08 00:32:49;;;;;;;5.17;3.57;;;3.60;99.90;;;;;;4945513;28;20438;-70
2024/02/08 00:35:17;;;;;;;15.40;5.03;;;3.70;99.90;;;;;;4946308;28;20450;-70
2024/02/08 00:37:49;;;;;;;10.30;5.30;;;3.80;99.90;;;;;;4945612;28;20842;-72
2024/02/08 00:40:17;;;;;;;11.03;5.27;;;3.70;99.90;;;;;;4941014;28;20970;-69
2024/02/08 00:42:46;;;;;;;8.10;4.60;;;3.80;99.90;;;;;;4942506;28;20591;-70
2024/02/08 00:45:16;;;;;;;5.23;4.47;;;3.70;99.90;;;;;;4930907;28;20635;-70
2024/02/08 00:47:43;;;;;;;10.50;6.20;;;3.60;99.90;;;;;;4939613;28;20456;-70
2024/02/08 00:50:10;;;;;;;9.40;5.13;;;3.60;99.90;;;;;;4948471;28;20446;-70
2024/02/08 00:52:37;;;;;;;12.73;5.50;;;3.60;99.90;;;;;;4943651;28;20473;-69
2024/02/08 00:55:05;;;;;;;7.80;5.10;;;3.70;99.90;;;;;;4944787;28;20435;-71
2024/02/08 00:57:32;;;;;;;12.13;5.43;;;3.80;99.90;;;;;;4949717;28;20444;-70
2024/02/08 00:59:59;;;;;;;9.60;5.47;;;3.80;99.90;;;;;;4948880;28;20952;-71
2024/02/08 01:02:26;;;;;;;6.30;3.73;;;3.80;99.90;;;;;;4944691;28;21209;-71
2024/02/08 01:04:53;;;;;;;7.87;4.77;;;3.80;99.90;;;;;;4948669;28;20495;-70
2024/02/08 01:07:20;;;;;;;7.20;4.70;;;3.80;99.90;;;;;;4948822;28;20466;-70
2024/02/08 01:09:46;;;;;;;6.00;4.40;;;3.80;99.90;;;;;;4940124;28;20431;-70
2024/02/08 01:12:14;;;;;;;14.43;7.07;;;3.90;99.90;;;;;;4941830;28;20464;-70
2024/02/08 01:14:42;;;;;;;4.53;3.73;;;3.90;99.90;;;;;;4944101;28;20962;-70
2024/02/08 01:17:09;;;;;;;6.63;4.87;;;3.90;99.90;;;;;;4944673;28;20484;-71
2024/02/08 01:19:38;;;;;;;15.77;5.73;;;4.00;99.90;;;;;;4930960;28;20467;-71
2024/02/08 01:22:05;;;;;;;9.87;5.70;;;4.10;99.90;;;;;;4936465;28;20467;-71
2024/02/08 01:24:32;;;;;;;12.30;4.53;;;4.00;99.90;;;;;;4939049;28;20615;-71
2024/02/08 01:26:58;;;;;;;6.83;6.13;;;4.10;99.90;;;;;;4944449;28;20488;-70
2024/02/08 01:29:26;;;;;;;6.00;3.90;;;4.10;99.90;;;;;;4939434;28;20475;-71
2024/02/08 01:31:54;;;;;;;7.77;4.40;;;4.10;99.90;;;;;;4947820;28;20463;-71
2024/02/08 01:34:23;;;;;;;5.17;3.87;;;4.10;99.90;;;;;;4942262;28;20446;-71
2024/02/08 01:36:53;;;;;;;20.87;5.87;;;3.80;99.90;;;;;;4941076;28;21046;-71
2024/02/08 01:39:23;;;;;;;15.73;5.53;;;3.70;99.90;;;;;;4941964;28;20475;-70
2024/02/08 01:41:50;;;;;;;9.90;6.20;;;3.70;99.90;;;;;;4928284;28;20520;-71
2024/02/08 01:44:17;;;;;;;6.90;4.20;;;3.70;99.90;;;;;;4938550;28;20504;-70
2024/02/08 01:46:48;;;;;;;11.43;4.97;;;3.70;99.90;;;;;;4933727;28;20487;-70
2024/02/08 01:49:18;;;;;;;7.87;5.30;;;3.80;99.90;;;;;;4941109;28;20489;-70
2024/02/08 01:51:45;;;;;;;7.83;4.20;;;3.80;99.90;;;;;;4932206;28;20496;-70
2024/02/08 01:54:14;;;;;;;13.83;4.20;;;3.80;99.90;;;;;;4939704;28;20503;-70
2024/02/08 01:56:41;;;;;;;6.73;4.67;;;3.80;99.90;;;;;;4937166;28;20973;-70
2024/02/08 01:59:10;;;;;;;9.97;6.40;;;3.70;99.90;;;;;;4941397;28;20479;-69
2024/02/08 02:01:37;;;;;;;8.77;5.70;;;3.80;99.90;;;;;;4940712;28;20484;-69
2024/02/08 02:04:07;;;;;;;7.53;5.53;;;3.70;99.90;;;;;;4925922;28;20476;-70
2024/02/08 02:06:35;;;;;;;12.90;6.87;;;3.40;99.90;;;;;;4941829;28;20499;-71
2024/02/08 02:09:02;;;;;;;22.83;8.70;;;3.20;99.90;;;;;;4940212;28;20471;-70
2024/02/08 02:11:36;;;;;;;6.30;4.03;;;3.30;99.90;;;;;;4933669;28;20828;-70
2024/02/08 02:14:05;;;;;;;10.50;5.30;;;3.30;99.90;;;;;;4939143;28;20451;-72
2024/02/08 02:16:32;;;;;;;14.00;7.00;;;3.50;99.90;;;;;;4980612;23;20598;-71
2024/02/08 02:18:58;;;;;;;13.20;5.37;;;3.50;99.90;;;;;;4988608;28;20462;-71
2024/02/08 02:21:27;;;;;;;9.67;4.50;;;3.50;99.90;;;;;;4986313;28;20543;-70
2024/02/08 02:23:54;;;;;;;12.33;5.90;;;3.70;99.90;;;;;;4991257;28;20444;-70
2024/02/08 02:26:22;;;;;;;6.73;4.70;;;3.70;99.90;;;;;;4984935;28;20458;-70
2024/02/08 02:28:50;;;;;;;8.30;5.80;;;3.70;99.90;;;;;;4972142;28;21006;-69
2024/02/08 02:31:19;;;;;;;13.40;7.60;;;3.70;99.90;;;;;;4971138;28;21019;-70
2024/02/08 02:33:48;;;;;;;12.03;5.03;;;3.50;99.90;;;;;;4974733;28;20470;-70
2024/02/08 02:36:15;;;;;;;7.80;4.60;;;3.60;99.90;;;;;;4973798;28;20565;-70
2024/02/08 02:38:45;;;;;;;10.23;4.30;;;3.70;99.90;;;;;;4976752;28;20462;-70
2024/02/08 02:41:11;;;;;;;17.13;5.87;;;3.80;99.90;;;;;;4973383;28;20810;-70
2024/02/08 02:43:39;;;;;;;7.20;5.20;;;3.60;99.90;;;;;;4972818;28;20926;-70
2024/02/08 02:46:06;;;;;;;17.53;7.97;;;3.60;99.90;;;;;;4971038;28;22046;-70
2024/02/08 02:48:34;;;;;;;6.20;2.90;;;3.80;99.90;;;;;;4972768;28;20471;-70
2024/02/08 02:51:01;;;;;;;5.17;3.80;;;3.80;99.90;;;;;;4975601;28;22740;-70
2024/02/08 02:53:30;;;;;;;5.17;3.77;;;3.50;99.90;;;;;;4977332;28;20572;-70
2024/02/08 02:55:59;;;;;;;13.00;6.60;;;3.40;99.90;;;;;;4968403;28;20464;-70
2024/02/08 02:58:26;;;;;;;15.13;5.10;;;3.50;99.90;;;;;;4971023;28;20449;-70
2024/02/08 03:01:04;;;;;;;8.73;4.90;;;3.60;99.90;;;;;;4956754;28;20506;-70
2024/02/08 03:03:37;;;;;;;11.50;5.63;;;3.70;99.90;;;;;;4964208;28;20441;-70
2024/02/08 03:06:13;;;;;;;15.07;6.93;;;3.80;99.90;;;;;;4975513;28;20551;-70
2024/02/08 03:08:41;;;;;;;9.53;6.40;;;3.80;99.90;;;;;;4977670;28;20605;-70
2024/02/08 03:11:10;;;;;;;8.83;5.27;;;3.90;99.90;;;;;;4968142;28;20446;-71
2024/02/08 03:13:39;;;;;;;6.70;5.97;;;3.70;99.90;;;;;;4966538;28;20841;-71
2024/02/08 03:16:09;;;;;;;16.43;5.77;;;3.80;99.90;;;;;;4964536;28;20526;-71
2024/02/08 03:18:38;;;;;;;10.23;5.87;;;3.80;99.90;;;;;;4957140;28;20587;-71
2024/02/08 03:21:05;;;;;;;12.30;5.07;;;3.80;99.90;;;;;;4965524;28;20461;-71
2024/02/08 03:23:33;;;;;;;10.93;5.00;;;3.80;99.90;;;;;;4969989;28;20513;-71
2024/02/08 03:26:00;;;;;;;7.63;5.70;;;3.80;99.90;;;;;;4966746;28;20495;-71
2024/02/08 03:28:29;;;;;;;10.47;5.97;;;3.80;99.90;;;;;;4959603;28;20528;-72
2024/02/08 03:30:56;;;;;;;13.60;6.80;;;3.70;99.90;;;;;;4965964;28;23263;-71
2024/02/08 03:33:23;;;;;;;9.77;5.87;;;3.50;99.90;;;;;;4976144;28;20823;-71
2024/02/08 03:35:53;;;;;;;10.87;7.60;;;3.60;99.90;;;;;;4986347;28;20452;-71
2024/02/08 03:38:20;;;;;;;12.43;8.37;;;3.70;99.90;;;;;;4977342;28;20562;-70
2024/02/08 03:40:47;;;;;;;17.00;4.93;;;3.80;99.90;;;;;;4974253;28;20811;-70
2024/02/08 03:43:15;;;;;;;11.13;6.47;;;3.90;99.90;;;;;;4974410;28;20474;-70
2024/02/08 03:45:46;;;;;;;14.60;5.40;;;3.90;99.90;;;;;;4978434;28;20877;-69
2024/02/08 03:48:14;;;;;;;9.57;5.73;;;3.80;99.90;;;;;;4974071;28;20517;-70
2024/02/08 03:50:41;;;;;;;17.00;6.33;;;3.90;99.90;;;;;;4980595;28;20520;-69
2024/02/08 03:53:12;;;;;;;17.80;5.90;;;3.80;99.90;;;;;;4970724;28;20521;-70
2024/02/08 03:55:43;;;;;;;12.73;6.67;;;4.00;99.90;;;;;;4973978;28;20489;-70
2024/02/08 03:58:10;;;;;;;10.00;4.07;;;4.10;99.90;;;;;;4976458;28;20456;-71
2024/02/08 04:00:42;;;;;;;7.10;4.73;;;4.10;99.90;;;;;;4977429;28;20465;-69
2024/02/08 04:03:14;;;;;;;9.50;5.73;;;4.10;99.90;;;;;;4975703;28;20506;-70
2024/02/08 04:05:58;;;;;;;8.90;5.27;;;4.00;99.90;;;;;;4967890;28;20622;-70
2024/02/08 04:09:05;;;;;;;11.40;5.80;;;3.80;99.90;;;;;;4978105;28;20440;-70
2024/02/08 04:55:13;;;;;;;16.07;7.30;;;4.10;99.90;;;;;;4977562;28;20490;-70
2024/02/08 04:57:40;;;;;;;10.60;7.97;;;4.10;99.90;;;;;;4980876;28;20477;-70
2024/02/08 05:00:12;;;;;;;10.10;5.37;;;4.10;99.90;;;;;;4980437;28;20992;-70
2024/02/08 05:02:40;;;;;;;6.17;5.23;;;4.10;99.90;;;;;;4979790;28;20466;-71
2024/02/08 05:05:11;;;;;;;11.67;6.60;;;4.10;99.90;;;;;;4982363;28;20560;-71
2024/02/08 05:07:39;;;;;;;8.00;7.20;;;4.20;99.90;;;;;;4977949;28;20473;-71
2024/02/08 05:10:08;;;;;;;7.47;4.37;;;4.10;99.90;;;;;;4975166;28;20820;-71
2024/02/08 05:12:36;;;;;;;6.50;4.83;;;4.10;99.90;;;;;;4984514;28;20466;-71
2024/02/08 05:15:02;;;;;;;6.70;6.00;;;4.10;99.90;;;;;;4969781;28;20471;-71
2024/02/08 05:17:30;;;;;;;15.40;6.90;;;4.10;99.90;;;;;;4969344;28;20451;-71
2024/02/08 05:19:57;;;;;;;9.90;5.70;;;4.10;99.90;;;;;;4970127;28;20478;-71
2024/02/08 05:22:23;;;;;;;13.27;6.83;;;4.20;99.90;;;;;;4972850;28;20470;-71
2024/02/08 05:24:51;;;;;;;10.80;7.07;;;4.20;99.90;;;;;;4974176;28;20542;-71
2024/02/08 05:27:18;;;;;;;10.27;5.37;;;4.30;99.90;;;;;;4964278;28;20494;-71
2024/02/08 05:29:46;;;;;;;7.70;6.17;;;4.30;99.90;;;;;;4978550;28;21062;-71
2024/02/08 05:32:13;;;;;;;9.07;5.77;;;4.30;99.90;;;;;;4974586;28;20473;-71
2024/02/08 05:34:40;;;;;;;5.57;3.70;;;4.30;99.90;;;;;;4974883;28;20833;-71
2024/02/08 05:37:06;;;;;;;10.70;5.43;;;4.40;99.90;;;;;;4976413;28;20480;-70
2024/02/08 05:39:36;;;;;;;7.80;5.77;;;4.30;99.90;;;;;;4974968;28;20441;-71
2024/02/08 05:42:05;;;;;;;9.50;5.30;;;4.00;99.90;;;;;;4979036;28;20459;-71
2024/02/08 05:44:32;;;;;;;5.20;4.23;;;3.90;99.90;;;;;;4983816;28;20472;-71
2024/02/08 05:47:07;;;;;;;6.57;4.00;;;3.90;99.90;;;;;;4972393;28;20826;-72
2024/02/08 05:49:34;;;;;;;6.50;5.10;;;4.00;99.90;;;;;;4979335;28;20457;-71
2024/02/08 05:52:05;;;;;;;7.67;5.90;;;4.10;99.90;;;;;;4976005;28;20460;-71
2024/02/08 05:54:36;;;;;;;10.83;4.93;;;4.10;99.90;;;;;;4973771;28;20500;-71
2024/02/08 05:57:06;;;;;;;15.73;6.63;;;4.10;99.90;;;;;;4972661;28;20836;-72
2024/02/08 05:59:33;;;;;;;8.93;7.23;;;4.00;99.90;;;;;;4980211;28;20464;-72
2024/02/08 06:02:01;;;;;;;9.37;6.23;;;4.00;99.90;;;;;;4975298;28;20477;-71
2024/02/08 06:04:34;;;;;;;12.40;8.13;;;4.00;99.90;;;;;;4976737;28;20553;-71
2024/02/08 06:07:05;;;;;;;12.10;8.10;;;4.00;99.90;;;;;;4977576;28;20482;-71
2024/02/08 06:09:47;;;;;;;10.20;6.87;;;4.10;99.90;;;;;;4976488;28;20463;-72
2024/02/08 06:12:24;;;;;;;9.80;7.20;;;4.10;99.90;;;;;;4975407;28;20439;-71
2024/02/08 06:14:57;;;;;;;9.70;5.50;;;4.10;99.90;;;;;;4976372;28;20433;-72
2024/02/08 06:17:31;;;;;;;10.90;6.40;;;4.10;99.90;;;;;;4976070;28;20440;-71
2024/02/08 06:20:00;;;;;;;10.30;6.33;;;4.00;99.90;;;;;;4974629;28;20500;-71
2024/02/08 06:22:29;;;;;;;8.23;5.40;;;4.10;99.90;;;;;;4980392;28;20555;-71
2024/02/08 06:25:08;;;;;;;13.23;6.87;;;4.10;99.90;;;;;;4973637;28;20989;-71
2024/02/08 06:27:37;;;;;;;7.50;5.90;;;4.00;99.90;;;;;;4979342;28;20565;-71
2024/02/08 06:30:08;;;;;;;8.00;5.43;;;3.90;99.90;;;;;;4975198;28;20469;-71
2024/02/08 06:32:43;;;;;;;12.87;4.70;;;3.90;99.90;;;;;;4976545;28;20450;-71
2024/02/08 06:35:13;;;;;;;13.83;7.20;;;4.00;99.90;;;;;;4975225;28;20428;-71
2024/02/08 06:37:44;;;;;;;9.87;6.60;;;4.00;99.90;;;;;;4978396;28;20418;-71
2024/02/08 06:40:21;;;;;;;10.07;7.37;;;4.10;99.90;;;;;;4978312;28;20543;-71
2024/02/08 06:46:09;;;;;;;16.43;9.83;;;4.20;99.90;;;;;;4974642;28;20884;-71
2024/02/08 07:37:14;;;;;;;12.63;8.23;;;4.20;99.90;;;;;;4979966;28;20471;-72
2024/02/08 07:38:53;;;;;;;12.83;7.40;;;4.30;99.90;;;;;;4978928;28;20527;-71
2024/02/08 07:41:21;;;;;;;24.90;9.47;;;4.40;99.90;;;;;;4979479;28;20806;-71
2024/02/08 07:43:54;;;;;;;17.30;7.73;;;4.40;99.90;;;;;;4979887;28;20480;-71
2024/02/08 07:46:26;;;;;;;23.40;9.80;;;4.40;99.90;;;;;;4977137;28;20493;-71
2024/02/08 07:48:58;;;;;;;7.73;6.77;;;4.50;99.90;;;;;;4982041;28;20472;-71
2024/02/08 07:51:28;;;;;;;12.93;8.33;;;4.60;99.90;;;;;;4980061;28;20549;-71
2024/02/08 07:53:55;;;;;;;10.00;7.00;;;4.50;99.90;;;;;;4981433;28;20551;-71
2024/02/08 07:56:37;;;;;;;8.80;6.10;;;4.30;99.90;;;;;;4981302;28;20564;-71
2024/02/08 07:59:04;;;;;;;15.97;7.00;;;4.20;99.90;;;;;;4980960;28;20479;-71
2024/02/08 08:01:32;;;;;;;25.03;6.50;;;4.20;99.90;;;;;;4977518;28;20641;-71
2024/02/08 08:04:00;;;;;;;14.10;8.43;;;4.30;99.90;;;;;;4977843;28;20570;-71
2024/02/08 08:06:34;;;;;;;13.50;7.43;;;4.20;99.90;;;;;;4978135;28;20573;-71
2024/02/08 08:09:18;;;;;;;13.50;6.23;;;4.20;99.90;;;;;;4980673;28;20934;-71
2024/02/08 08:11:46;;;;;;;13.27;7.87;;;4.30;99.90;;;;;;4974182;28;20458;-71
2024/02/08 08:14:55;;;;;;;17.03;9.13;;;4.30;99.90;;;;;;4982106;28;20486;-71
2024/02/08 08:19:47;;;;;;;10.77;7.40;;;4.50;99.90;;;;;;4978777;28;22738;-70
2024/02/08 08:22:50;;;;;;;22.93;10.17;;;4.70;99.90;;;;;;4988211;28;20466;-71
2024/02/08 08:25:28;;;;;;;14.67;7.20;;;4.80;99.90;;;;;;4980230;28;20567;-71
2024/02/08 08:28:09;;;;;;;18.10;10.10;;;4.80;99.90;;;;;;4961178;28;20488;-71
2024/02/08 08:30:38;;;;;;;18.03;6.90;;;4.90;99.90;;;;;;4959424;28;20545;-71
2024/02/08 08:33:08;;;;;;;6.50;5.90;;;5.00;99.90;;;;;;4971432;28;20465;-71
2024/02/08 08:35:53;;;;;;;11.30;7.47;;;4.80;99.90;;;;;;4963826;28;20531;-71
2024/02/08 08:38:28;;;;;;;14.70;6.57;;;4.70;99.90;;;;;;4970083;28;20441;-71
2024/02/08 08:41:06;;;;;;;20.60;6.80;;;4.80;99.90;;;;;;4962986;28;20473;-71
2024/02/08 08:43:36;;;;;;;10.93;5.77;;;4.80;99.90;;;;;;4968507;28;20489;-71
2024/02/08 08:46:09;;;;;;;2.30;2.00;;;4.70;99.90;;;;;;4965363;28;20490;-71
2024/02/08 08:48:40;;;;;;;12.33;7.27;;;4.70;99.90;;;;;;4961209;28;20548;-71
2024/02/08 08:51:14;;;;;;;22.00;9.30;;;4.70;99.90;;;;;;4964214;28;20465;-70
2024/02/08 08:53:44;;;;;;;8.70;4.50;;;4.80;99.90;;;;;;4965906;28;20811;-70
2024/02/08 08:56:12;;;;;;;14.07;7.87;;;4.80;99.90;;;;;;4965361;28;21022;-71
2024/02/08 08:58:39;;;;;;;7.80;5.40;;;5.00;99.90;;;;;;4963637;28;20466;-71
2024/02/08 09:01:15;;;;;;;12.27;6.87;;;5.10;99.90;;;;;;4963664;28;20565;-71
2024/02/08 09:03:43;;;;;;;10.37;7.20;;;5.40;99.90;;;;;;4972734;28;20497;-71
2024/02/08 09:06:13;;;;;;;7.27;6.50;;;5.40;99.90;;;;;;4958153;28;20920;-71
2024/02/08 09:08:44;;;;;;;9.80;6.37;;;5.30;99.90;;;;;;4963678;28;20491;-71
2024/02/08 09:11:13;;;;;;;5.60;5.03;;;5.20;99.90;;;;;;4959634;28;20471;-71
2024/02/08 09:13:42;;;;;;;8.03;6.93;;;5.20;99.90;;;;;;4962607;28;20462;-71
2024/02/08 09:19:04;;;;;;;7.47;5.80;;;5.20;99.90;;;;;;4962501;28;20568;-71
2024/02/08 09:21:33;;;;;;;5.00;3.73;;;5.20;99.90;;;;;;4960721;28;20559;-71
2024/02/08 09:24:03;;;;;;;5.17;3.07;;;5.30;99.90;;;;;;4965808;28;20553;-71
2024/02/08 09:26:48;;;;;;;4.10;3.27;;;5.30;99.90;;;;;;4963455;28;20533;-71
2024/02/08 09:29:23;;;;;;;6.50;5.57;;;5.20;99.90;;;;;;4958229;28;20484;-71
2024/02/08 09:31:50;;;;;;;7.33;3.73;;;5.20;99.90;;;;;;4960839;28;21055;-71
2024/02/08 09:34:17;;;;;;;8.13;5.77;;;5.30;99.90;;;;;;4966868;28;20468;-71
2024/02/08 09:36:46;;;;;;;11.33;5.83;;;5.20;99.90;;;;;;4959362;28;20509;-69
2024/02/08 09:39:16;;;;;;;7.13;5.10;;;5.30;99.90;;;;;;4960678;28;20536;-69
2024/02/08 09:41:45;;;;;;;7.27;5.77;;;5.30;99.90;;;;;;4960093;28;20462;-70
2024/02/08 09:44:12;;;;;;;8.47;5.60;;;5.40;99.90;;;;;;4962619;28;20467;-70
2024/02/08 09:46:56;;;;;;;21.40;6.83;;;5.50;99.90;;;;;;4960057;28;20580;-70
2024/02/08 09:49:34;;;;;;;9.00;5.67;;;5.50;99.90;;;;;;4958695;28;20828;-71
2024/02/08 09:52:15;;;;;;;11.50;5.40;;;5.60;99.90;;;;;;4963130;28;20471;-70
2024/02/08 09:54:46;;;;;;;9.57;4.20;;;5.50;99.90;;;;;;4966178;28;20542;-71
2024/02/08 09:57:21;;;;;;;4.93;3.33;;;5.50;99.90;;;;;;4960094;28;21035;-71
2024/02/08 10:00:00;;;;;;;6.50;4.47;;;5.40;99.90;;;;;;4966050;28;20490;-71
2024/02/08 10:02:33;;;;;;;5.30;4.13;;;5.50;99.90;;;;;;4959837;28;20462;-71
2024/02/08 10:05:18;;;;;;;1.83;1.63;;;5.50;99.90;;;;;;4961269;28;20460;-71
2024/02/08 10:08:05;;;;;;;1.00;0.90;;;5.50;99.90;;;;;;4961019;28;20501;-71
2024/02/08 10:10:33;;;;;;;10.43;4.03;;;5.30;99.90;;;;;;4960289;28;20459;-71
2024/02/08 10:13:05;;;;;;;9.57;2.33;;;5.30;99.90;;;;;;4956566;28;20433;-71
2024/02/08 10:15:39;;;;;;;1.40;1.30;;;5.40;99.90;;;;;;4966267;28;20507;-71
2024/02/08 10:18:10;;;;;;;4.20;2.50;;;5.40;99.90;;;;;;4965308;28;20455;-71
2024/02/08 10:20:45;;;;;;;2.70;2.00;;;5.30;99.90;;;;;;4963786;28;20557;-70
2024/02/08 10:28:43;;;;;;;4.00;3.20;;;5.50;99.90;;;;;;4962830;28;20487;-71
2024/02/08 10:31:22;;;;;;;6.97;3.73;;;5.70;99.90;;;;;;4966630;28;20562;-70
2024/02/08 10:33:50;;;;;;;8.27;2.70;;;5.70;99.90;;;;;;4963687;28;20461;-70
2024/02/08 10:36:18;;;;;;;5.07;2.13;;;5.80;99.90;;;;;;4964524;28;20882;-70
2024/02/08 10:38:55;;;;;;;3.57;2.40;;;5.80;99.90;;;;;;4962372;28;20957;-70
2024/02/08 10:41:27;;;;;;;7.73;4.57;;;5.90;99.90;;;;;;4960783;28;20484;-70
2024/02/08 10:43:57;;;;;;;3.43;1.93;;;6.00;99.90;;;;;;4962866;28;20945;-70
2024/02/08 10:46:31;;;;;;;7.13;4.57;;;6.00;99.90;;;;;;4960940;28;20608;-70
2024/02/08 10:49:00;;;;;;;7.17;5.30;;;6.20;99.90;;;;;;4962824;28;20580;-70
2024/02/08 10:51:29;;;;;;;5.10;3.73;;;6.20;99.90;;;;;;4959737;28;20459;-71
2024/02/08 10:54:06;;;;;;;8.10;5.13;;;6.40;99.90;;;;;;4963312;28;20469;-71
2024/02/08 10:56:44;;;;;;;10.70;5.13;;;6.60;99.90;;;;;;4958226;28;21705;-70
2024/02/08 10:59:14;;;;;;;8.13;5.27;;;6.70;99.90;;;;;;4966178;28;20464;-70
2024/02/08 11:04:28;;;;;;;5.23;4.53;;;6.50;99.90;;;;;;4959074;28;20916;-71
2024/02/08 11:07:06;;;;;;;5.43;3.67;;;6.40;99.90;;;;;;4965524;28;20495;-71
2024/02/08 11:09:35;;;;;;;2.70;2.30;;;6.40;99.90;;;;;;4963939;28;20433;-71
2024/02/08 11:12:07;;;;;;;1.97;1.23;;;6.30;99.90;;;;;;4968555;28;20466;-71
2024/02/08 11:14:40;;;;;;;2.13;1.93;;;6.10;99.90;;;;;;4963952;28;20459;-71
2024/02/08 11:17:20;;;;;;;2.00;1.80;;;6.00;99.90;;;;;;4960533;28;20616;-70
2024/02/08 11:19:49;;;;;;;7.03;3.67;;;6.00;99.90;;;;;;4964197;28;20459;-71
2024/02/08 11:22:24;;;;;;;3.00;1.77;;;6.10;99.90;;;;;;4964841;28;20544;-71
2024/02/08 11:24:58;;;;;;;2.70;2.40;;;6.20;99.90;;;;;;4965247;28;20621;-71
2024/02/08 11:27:27;;;;;;;6.73;4.07;;;6.20;99.90;;;;;;4954967;28;20529;-71
2024/02/08 11:29:57;;;;;;;9.83;3.53;;;6.00;99.90;;;;;;4961129;28;20470;-71
2024/02/08 11:32:24;;;;;;;5.63;3.30;;;6.00;99.90;;;;;;4957756;28;20526;-70
2024/02/08 11:34:54;;;;;;;9.10;4.50;;;6.20;99.90;;;;;;4963892;28;20467;-70
2024/02/08 11:37:29;;;;;;;14.57;5.53;;;6.10;99.90;;;;;;4964350;28;20580;-70
2024/02/08 11:40:01;;;;;;;7.20;4.10;;;6.20;99.90;;;;;;4960015;28;20430;-71
2024/02/08 11:42:35;;;;;;;5.47;3.97;;;6.00;99.90;;;;;;4959002;28;20472;-71
2024/02/08 11:45:08;;;;;;;5.23;4.13;;;6.00;99.90;;;;;;4966113;28;20475;-71
2024/02/08 11:47:37;;;;;;;4.13;3.40;;;6.10;99.90;;;;;;4955696;28;20461;-71
2024/02/08 11:50:08;;;;;;;7.30;5.50;;;6.10;99.90;;;;;;4963921;28;21105;-71
2024/02/08 11:52:36;;;;;;;6.63;4.53;;;6.10;99.90;;;;;;4959052;28;20521;-71
2024/02/08 11:55:08;;;;;;;7.43;3.30;;;6.00;99.90;;;;;;4967801;28;20475;-71
2024/02/08 11:57:40;;;;;;;15.23;5.03;;;5.90;99.90;;;;;;4969361;28;20856;-71
2024/02/08 12:00:16;;;;;;;8.90;4.93;;;6.10;99.90;;;;;;4963392;28;20554;-70
2024/02/08 12:02:47;;;;;;;3.73;3.03;;;6.10;99.90;;;;;;4964908;28;20539;-72
2024/02/08 12:05:16;;;;;;;2.90;2.13;;;6.20;99.90;;;;;;4967408;28;20990;-70
2024/02/08 12:07:45;;;;;;;6.93;4.10;;;6.00;99.90;;;;;;4964532;28;20486;-70
2024/02/08 12:10:15;;;;;;;3.73;2.23;;;6.00;99.90;;;;;;4963213;28;20459;-70
2024/02/08 12:12:44;;;;;;;2.87;2.60;;;5.80;99.90;;;;;;4963457;28;20475;-70
2024/02/08 12:15:12;;;;;;;4.60;2.90;;;5.70;99.90;;;;;;4968825;28;20498;-70
2024/02/08 12:17:40;;;;;;;4.60;3.33;;;5.70;99.90;;;;;;4959440;28;21413;-70
2024/02/08 12:20:10;;;;;;;5.17;3.30;;;5.80;99.90;;;;;;4967009;28;20862;-70
2024/02/08 12:22:41;;;;;;;7.70;4.00;;;5.70;99.90;;;;;;4959522;28;20496;-70
2024/02/08 12:25:15;;;;;;;9.03;3.53;;;5.90;99.90;;;;;;4966676;28;20463;-71
2024/02/08 12:27:48;;;;;;;5.07;3.37;;;6.10;99.90;;;;;;4971898;28;20479;-70
2024/02/08 12:30:21;;;;;;;5.70;3.63;;;6.00;99.90;;;;;;4969121;28;20513;-70
2024/02/08 12:32:50;;;;;;;3.40;2.60;;;6.00;99.90;;;;;;4963647;28;20498;-70
2024/02/08 12:35:18;;;;;;;6.60;4.27;;;6.00;99.90;;;;;;4970809;28;20577;-70
2024/02/08 12:37:46;;;;;;;6.47;5.20;;;6.10;99.90;;;;;;4959205;28;20458;-69
2024/02/08 12:40:13;;;;;;;3.37;2.33;;;6.00;99.90;;;;;;4969913;28;20474;-70
2024/02/08 12:42:42;;;;;;;10.73;3.40;;;6.20;99.90;;;;;;4963752;28;20463;-70
2024/02/08 12:45:10;;;;;;;4.47;3.97;;;6.00;99.90;;;;;;4964201;28;20474;-70
2024/02/08 12:47:39;;;;;;;4.73;3.27;;;5.90;99.90;;;;;;4965583;28;20494;-70
2024/02/08 12:50:08;;;;;;;2.60;1.63;;;6.00;99.90;;;;;;4969019;28;20824;-70
2024/02/08 12:52:35;;;;;;;7.70;4.13;;;6.10;99.90;;;;;;4964604;28;20518;-70
2024/02/08 12:55:02;;;;;;;6.97;2.73;;;6.10;99.90;;;;;;4965331;28;20465;-71
2024/02/08 12:57:29;;;;;;;4.40;3.40;;;6.20;99.90;;;;;;4965756;28;20484;-70
2024/02/08 13:00:07;;;;;;;4.50;3.27;;;6.10;99.90;;;;;;4966763;28;20928;-71
2024/02/08 13:02:34;;;;;;;12.27;5.87;;;6.40;99.90;;;;;;4967144;28;20429;-70
2024/02/08 13:05:02;;;;;;;5.77;4.20;;;6.40;99.90;;;;;;4966684;28;20738;-71
2024/02/08 13:07:29;;;;;;;8.83;7.13;;;6.30;99.90;;;;;;4965913;28;20466;-71
2024/02/08 13:10:03;;;;;;;12.80;3.93;;;6.20;99.90;;;;;;4963763;28;20961;-71
2024/02/08 13:12:30;;;;;;;4.50;3.00;;;6.30;99.90;;;;;;4965123;28;20821;-71
2024/02/08 13:15:02;;;;;;;8.60;4.90;;;6.40;99.90;;;;;;4970181;28;20455;-71
2024/02/08 13:17:33;;;;;;;5.10;3.93;;;6.30;99.90;;;;;;4963584;28;20603;-70
2024/02/08 13:20:11;;;;;;;2.87;2.50;;;6.30;99.90;;;;;;4965927;28;20471;-70
2024/02/08 13:22:38;;;;;;;2.27;1.93;;;6.20;99.90;;;;;;4967348;28;20462;-70
2024/02/08 13:25:12;;;;;;;4.93;3.33;;;6.00;99.90;;;;;;4962439;28;20872;-70
2024/02/08 13:27:40;;;;;;;4.00;3.47;;;6.00;99.90;;;;;;4961396;28;20529;-70
2024/02/08 13:30:14;;;;;;;10.30;5.17;;;5.90;99.90;;;;;;4965828;28;20534;-70
2024/02/08 13:32:44;;;;;;;5.60;3.80;;;6.00;99.90;;;;;;4962006;28;20579;-71
2024/02/08 13:35:17;;;;;;;4.37;3.67;;;6.00;99.90;;;;;;4965073;28;20459;-71
2024/02/08 13:37:46;;;;;;;6.63;4.63;;;5.90;99.90;;;;;;4955530;28;20436;-71
2024/02/08 13:40:13;;;;;;;15.03;5.00;;;5.90;99.90;;;;;;4966897;28;20467;-70
2024/02/08 13:42:40;;;;;;;5.50;3.97;;;5.90;99.90;;;;;;4962729;28;20485;-71
2024/02/08 13:45:07;;;;;;;11.87;6.20;;;5.90;99.90;;;;;;4963832;28;20459;-70
2024/02/08 13:47:36;;;;;;;6.87;4.90;;;5.70;99.90;;;;;;4962798;28;20937;-70
2024/02/08 13:50:10;;;;;;;3.97;2.23;;;5.60;99.90;;;;;;4966360;28;20474;-70
2024/02/08 13:52:37;;;;;;;3.33;3.03;;;5.60;99.90;;;;;;4962617;28;20439;-70
2024/02/08 13:55:07;;;;;;;6.60;5.03;;;5.60;99.90;;;;;;4964577;28;20436;-71
2024/02/08 13:57:40;;;;;;;12.40;4.40;;;5.60;99.90;;;;;;4962505;28;20466;-71
2024/02/08 14:00:08;;;;;;;5.63;3.60;;;5.60;99.90;;;;;;4962056;28;20937;-71
2024/02/08 14:02:36;;;;;;;5.10;3.60;;;5.60;99.90;;;;;;4966410;28;20451;-71
2024/02/08 14:05:16;;;;;;;4.77;4.30;;;5.60;99.90;;;;;;4963058;28;20544;-70
2024/02/08 14:07:47;;;;;;;6.37;4.60;;;5.60;99.90;;;;;;4962768;28;20466;-71
2024/02/08 14:10:17;;;;;;;7.13;3.43;;;5.60;99.90;;;;;;4961563;28;20470;-70
2024/02/08 14:12:48;;;;;;;10.77;5.27;;;5.70;99.90;;;;;;4957387;28;20525;-70
2024/02/08 14:15:16;;;;;;;5.60;4.70;;;5.80;99.90;;;;;;4965529;28;20474;-70
2024/02/08 14:17:54;;;;;;;5.57;5.07;;;5.80;99.90;;;;;;4962221;28;20570;-70
2024/02/08 14:20:39;;;;;;;6.47;3.93;;;5.60;99.90;;;;;;4963507;28;20466;-71
2024/02/08 14:23:09;;;;;;;11.60;4.93;;;5.50;99.90;;;;;;4963554;28;20462;-71
2024/02/08 14:25:48;;;;;;;8.30;4.13;;;5.50;99.90;;;;;;4963926;28;20481;-70
2024/02/08 14:28:16;;;;;;;8.67;5.60;;;5.40;99.90;;;;;;4963375;28;21005;-70
2024/02/08 14:30:42;;;;;;;3.23;2.67;;;5.30;99.90;;;;;;4960948;28;20824;-70
2024/02/08 14:33:11;;;;;;;6.70;2.40;;;5.40;99.90;;;;;;4964581;28;20459;-71
2024/02/08 14:35:39;;;;;;;4.87;2.87;;;5.30;99.90;;;;;;4966195;28;20610;-70
2024/02/08 14:38:07;;;;;;;3.33;2.40;;;5.30;99.90;;;;;;4971173;28;20436;-71
2024/02/08 14:40:34;;;;;;;4.47;2.83;;;5.20;99.90;;;;;;4967177;28;20451;-71
2024/02/08 14:43:05;;;;;;;8.23;4.80;;;5.20;99.90;;;;;;4961756;28;20481;-71
2024/02/08 14:45:38;;;;;;;2.17;1.57;;;5.20;99.90;;;;;;4962978;28;20540;-72
2024/02/08 14:48:09;;;;;;;3.10;2.83;;;5.10;99.90;;;;;;4965966;28;20514;-71
2024/02/08 14:50:51;;;;;;;10.27;3.10;;;5.10;99.90;;;;;;4969453;28;20463;-69
2024/02/08 14:53:19;;;;;;;4.30;3.60;;;5.10;99.90;;;;;;4964086;28;20474;-71
2024/02/08 14:55:46;;;;;;;5.07;2.10;;;5.10;99.90;;;;;;4959684;28;21053;-70
2024/02/08 15:00:57;;;;;;;6.77;5.07;;;4.90;99.90;;;;;;4965270;28;20543;-71